createdAt,value
2018-01-29T15:44:36.322Z,29.51
2018-01-29T15:45:36.177Z,29.60
2018-01-29T15:46:36.171Z,29.62
2018-01-29T15:47:36.171Z,29.64
2018-01-29T15:48:36.172Z,29.51
2018-01-29T15:49:36.173Z,29.55
2018-01-29T15:50:36.172Z,29.25
2018-01-29T15:51:36.172Z,29.10
2018-01-29T15:52:36.173Z,29.10
2018-01-29T15:53:36.172Z,29.15
2018-01-29T15:54:36.171Z,29.02
2018-01-29T15:55:36.168Z,29.00
2018-01-29T15:56:36.173Z,29.02
2018-01-29T15:57:36.168Z,28.89
2018-01-29T15:58:36.172Z,29.03
2018-01-29T15:59:36.168Z,29.05
2018-01-29T16:00:36.172Z,29.12
2018-01-29T16:01:36.167Z,29.02
2018-01-29T16:02:36.156Z,28.98
2018-01-29T16:03:36.171Z,28.95
2018-01-29T16:04:36.158Z,29.02
2018-01-29T16:05:36.157Z,29.08
2018-01-29T16:06:36.167Z,29.20
2018-01-29T16:07:36.156Z,29.08
2018-01-29T16:08:36.151Z,29.03
2018-01-29T16:09:36.167Z,29.15
2018-01-29T16:10:36.171Z,29.18
2018-01-29T16:11:36.170Z,29.29
2018-01-29T16:12:36.156Z,29.23
2018-01-29T16:13:36.152Z,29.11
2018-01-29T16:14:36.152Z,29.15
2018-01-29T16:15:36.166Z,29.26
2018-01-29T16:16:36.166Z,29.42
2018-01-29T16:17:36.156Z,29.05
2018-01-29T16:18:36.166Z,29.05
2018-01-29T16:19:36.167Z,28.98
2018-01-29T16:20:36.159Z,28.88
2018-01-29T16:21:36.156Z,28.98
2018-01-29T16:22:36.150Z,28.80
2018-01-29T16:23:36.168Z,28.89
2018-01-29T16:24:36.166Z,28.85
2018-01-29T16:25:36.170Z,28.94
2018-01-29T16:26:36.150Z,28.76
2018-01-29T16:27:36.156Z,28.80
2018-01-29T16:28:36.150Z,28.80
2018-01-29T16:29:36.169Z,28.77
2018-01-29T16:30:36.149Z,28.72
2018-01-29T16:31:36.165Z,28.80
2018-01-29T16:32:36.168Z,28.79
2018-01-29T16:33:36.153Z,28.67
2018-01-29T16:34:36.167Z,28.58
2018-01-29T16:35:36.153Z,28.62
2018-01-29T16:36:36.151Z,28.67
2018-01-29T16:37:36.151Z,28.51
2018-01-29T16:38:36.150Z,28.33
2018-01-29T16:39:36.146Z,28.35
2018-01-29T16:40:36.165Z,28.38
2018-01-29T16:41:36.160Z,28.40
2018-01-29T16:42:36.159Z,28.46
2018-01-29T16:43:36.159Z,28.35
2018-01-29T16:44:36.143Z,28.42
2018-01-29T16:45:36.147Z,28.43
2018-01-29T16:46:36.160Z,28.42
2018-01-29T16:47:36.146Z,28.30
2018-01-29T16:48:36.159Z,28.15
2018-01-29T16:49:36.159Z,28.08
2018-01-29T16:50:36.153Z,28.18
2018-01-29T16:51:36.144Z,28.32
2018-01-29T16:52:36.136Z,28.27
2018-01-29T16:53:36.140Z,28.36
2018-01-29T16:54:36.138Z,28.30
2018-01-29T16:55:36.137Z,28.33
2018-01-29T16:56:36.155Z,28.39
2018-01-29T16:57:36.132Z,28.39
2018-01-29T16:58:36.133Z,28.21
2018-01-29T16:59:36.134Z,28.33
2018-01-29T17:00:36.147Z,28.36
2018-01-29T17:01:36.132Z,28.23
2018-01-29T17:02:36.145Z,28.23
2018-01-29T17:03:36.130Z,28.24
2018-01-29T17:04:36.148Z,28.32
2018-01-29T17:05:36.142Z,28.23
2018-01-29T17:06:36.122Z,28.20
2018-01-29T17:07:36.126Z,28.32
2018-01-29T17:08:36.121Z,28.25
2018-01-29T17:09:36.120Z,28.24
2018-01-29T17:10:36.118Z,28.30
2018-01-29T17:11:36.117Z,28.27
2018-01-29T17:12:36.135Z,28.20
2018-01-29T17:13:36.138Z,28.09
2018-01-29T17:14:36.137Z,28.15
2018-01-29T17:15:36.136Z,28.15
2018-01-29T17:16:36.113Z,28.11
2018-01-29T17:17:36.111Z,27.91
2018-01-29T17:18:36.110Z,27.95
2018-01-29T17:19:36.114Z,27.96
2018-01-29T17:20:36.130Z,27.90
2018-01-29T17:21:36.125Z,27.93
2018-01-29T17:22:36.148Z,27.93
2018-01-29T17:23:36.126Z,27.98
2018-01-29T17:24:36.107Z,27.91
2018-01-29T17:25:36.107Z,27.98
2018-01-29T17:26:36.103Z,27.98
2018-01-29T17:27:36.099Z,28.02
2018-01-29T17:28:36.117Z,27.98
2018-01-29T17:29:36.100Z,27.95
2018-01-29T17:30:36.098Z,27.98
2018-01-29T17:31:36.094Z,27.98
2018-01-29T17:32:36.096Z,27.99
2018-01-29T17:33:36.110Z,27.87
2018-01-29T17:34:36.095Z,27.84
2018-01-29T17:35:36.107Z,27.84
2018-01-29T17:36:36.091Z,27.84
2018-01-29T17:37:36.090Z,27.83
2018-01-29T17:38:36.090Z,27.91
2018-01-29T17:39:36.087Z,27.86
2018-01-29T17:40:36.086Z,27.83
2018-01-29T17:41:36.100Z,27.87
2018-01-29T17:42:36.098Z,27.87
2018-01-29T17:43:36.081Z,27.81
2018-01-29T17:44:36.095Z,27.87
2018-01-29T17:45:36.075Z,27.68
2018-01-29T17:46:36.088Z,27.84
2018-01-29T17:47:36.079Z,27.84
2018-01-29T17:48:36.090Z,27.81
2018-01-29T17:49:36.070Z,27.84
2018-01-29T17:50:36.087Z,27.86
2018-01-29T17:51:36.066Z,27.91
2018-01-29T17:52:36.071Z,27.76
2018-01-29T17:53:36.068Z,27.77
2018-01-29T17:54:36.077Z,27.76
2018-01-29T17:55:36.097Z,27.66
2018-01-29T17:56:36.082Z,27.65
2018-01-29T17:57:36.078Z,27.65
2018-01-29T17:58:36.061Z,27.66
2018-01-29T17:59:36.075Z,27.69
2018-01-29T18:00:36.058Z,27.65
2018-01-29T18:01:36.059Z,27.65
2018-01-29T18:02:36.070Z,27.62
2018-01-29T18:03:36.054Z,27.69
2018-01-29T18:04:36.071Z,27.58
2018-01-29T18:05:36.066Z,27.63
2018-01-29T18:06:36.067Z,27.62
2018-01-29T18:07:36.067Z,27.78
2018-01-29T18:08:36.046Z,27.65
2018-01-29T18:09:36.064Z,27.65
2018-01-29T18:10:36.062Z,27.62
2018-01-29T18:11:36.043Z,27.61
2018-01-29T18:12:36.059Z,27.63
2018-01-29T18:13:36.058Z,27.71
2018-01-29T18:14:36.056Z,27.69
2018-01-29T18:15:36.038Z,27.74
2018-01-29T18:16:36.035Z,27.69
2018-01-29T18:17:36.029Z,27.69
2018-01-29T18:18:36.041Z,27.74
2018-01-29T18:19:36.026Z,27.76
2018-01-29T18:20:36.019Z,27.76
2018-01-29T18:21:36.047Z,27.71
2018-01-29T18:22:36.035Z,27.83
2018-01-29T18:23:36.039Z,27.90
2018-01-29T18:24:36.024Z,27.76
2018-01-29T18:25:36.041Z,27.78
2018-01-29T18:26:36.039Z,27.86
2018-01-29T18:27:36.034Z,27.91
2018-01-29T18:28:36.018Z,27.93
2018-01-29T18:29:36.032Z,27.93
2018-01-29T18:30:36.034Z,27.98
2018-01-29T18:31:36.005Z,28.02
2018-01-29T18:32:36.004Z,28.09
2018-01-29T18:33:36.005Z,28.13
2018-01-29T18:34:36.020Z,28.01
2018-01-29T18:35:36.006Z,28.05
2018-01-29T18:36:36.018Z,28.13
2018-01-29T18:37:36.004Z,28.09
2018-01-29T18:38:35.997Z,28.14
2018-01-29T18:39:36.011Z,28.17
2018-01-29T18:40:36.005Z,28.11
2018-01-29T18:41:36.019Z,28.08
2018-01-29T18:42:36.008Z,28.05
2018-01-29T18:43:35.992Z,28.05
2018-01-29T18:44:36.000Z,27.93
2018-01-29T18:45:36.014Z,27.98
2018-01-29T18:46:36.013Z,27.99
2018-01-29T18:47:35.997Z,28.05
2018-01-29T18:48:35.992Z,28.06
2018-01-29T18:49:35.991Z,27.96
2018-01-29T18:50:36.008Z,28.03
2018-01-29T18:51:35.983Z,27.93
2018-01-29T18:52:36.006Z,27.95
2018-01-29T18:53:36.001Z,27.81
2018-01-29T18:54:35.994Z,27.38
2018-01-29T18:55:35.988Z,27.27
2018-01-29T18:56:35.992Z,27.03
2018-01-29T18:57:36.001Z,26.83
2018-01-29T18:58:35.997Z,26.87
2018-01-29T18:59:35.992Z,26.78
2018-01-29T19:00:35.997Z,26.83
2018-01-29T19:01:35.998Z,26.75
2018-01-29T19:02:35.990Z,26.69
2018-01-29T19:03:35.989Z,26.57
2018-01-29T19:04:35.992Z,26.47
2018-01-29T19:05:35.990Z,26.32
2018-01-29T19:06:35.977Z,26.17
2018-01-29T19:07:35.976Z,26.17
2018-01-29T19:08:35.979Z,26.16
2018-01-29T19:09:35.976Z,26.17
2018-01-29T19:10:35.973Z,26.06
2018-01-29T19:11:35.975Z,26.03
2018-01-29T19:12:35.969Z,25.79
2018-01-29T19:13:35.967Z,25.79
2018-01-29T19:14:35.958Z,25.83
2018-01-29T19:15:35.965Z,25.90
2018-01-29T19:16:35.963Z,25.89
2018-01-29T19:17:35.960Z,25.91
2018-01-29T19:18:35.947Z,25.91
2018-01-29T19:19:35.955Z,25.91
2018-01-29T19:20:35.951Z,25.91
2018-01-29T19:21:35.945Z,25.91
2018-01-29T19:22:35.937Z,25.90
2018-01-29T19:23:35.939Z,25.89
2018-01-29T19:24:35.937Z,25.89
2018-01-29T19:25:35.934Z,25.83
2018-01-29T19:26:35.935Z,25.72
2018-01-29T19:27:35.928Z,25.67
2018-01-29T19:28:35.926Z,25.63
2018-01-29T19:29:35.923Z,25.63
2018-01-29T19:30:35.920Z,25.63
2018-01-29T19:31:35.918Z,25.54
2018-01-29T19:32:35.959Z,25.57
2018-01-29T19:33:35.907Z,25.54
2018-01-29T19:34:35.909Z,25.49
2018-01-29T19:35:35.911Z,25.48
2018-01-29T19:36:35.903Z,25.45
2018-01-29T19:37:35.900Z,25.46
2018-01-29T19:38:35.897Z,25.45
2018-01-29T19:39:35.894Z,25.44
2018-01-29T19:40:35.891Z,25.49
2018-01-29T19:41:35.888Z,25.56
2018-01-29T19:42:35.884Z,25.61
2018-01-29T19:43:35.884Z,25.63
2018-01-29T19:44:35.883Z,25.56
2018-01-29T19:45:35.876Z,25.57
2018-01-29T19:46:35.922Z,25.51
2018-01-29T19:47:35.869Z,25.63
2018-01-29T19:48:35.866Z,25.53
2018-01-29T19:49:35.864Z,25.69
2018-01-29T19:50:35.860Z,25.61
2018-01-29T19:51:35.861Z,25.54
2018-01-29T19:52:35.853Z,25.59
2018-01-29T19:53:35.851Z,25.61
2018-01-29T19:54:35.847Z,25.63
2018-01-29T19:55:35.844Z,25.54
2018-01-29T19:56:35.846Z,25.44
2018-01-29T19:57:35.842Z,25.45
2018-01-29T19:58:35.838Z,25.48
2018-01-29T19:59:35.832Z,25.48
2018-01-29T20:00:35.829Z,25.45
2018-01-29T20:01:35.828Z,25.45
2018-01-29T20:02:35.826Z,25.45
2018-01-29T20:03:35.819Z,25.42
2018-01-29T20:04:35.821Z,25.46
2018-01-29T20:05:35.817Z,25.45
2018-01-29T20:06:35.809Z,25.42
2018-01-29T20:07:35.806Z,25.41
2018-01-29T20:08:35.809Z,25.29
2018-01-29T20:09:35.800Z,25.19
2018-01-29T20:10:35.796Z,25.08
2018-01-29T20:11:35.793Z,25.14
2018-01-29T20:12:35.790Z,25.14
2018-01-29T20:13:35.796Z,25.07
2018-01-29T20:14:35.784Z,24.99
2018-01-29T20:15:35.779Z,25.01
2018-01-29T20:16:35.776Z,24.79
2018-01-29T20:17:35.777Z,24.63
2018-01-29T20:18:35.820Z,24.56
2018-01-29T20:19:35.769Z,24.46
2018-01-29T20:20:35.766Z,24.24
2018-01-29T20:21:35.758Z,24.16
2018-01-29T20:22:35.758Z,24.02
2018-01-29T20:23:35.731Z,24.02
2018-01-29T20:24:35.746Z,23.92
2018-01-29T20:25:35.742Z,23.86
2018-01-29T20:26:35.719Z,23.87
2018-01-29T20:27:35.738Z,23.86
2018-01-29T20:28:35.716Z,23.93
2018-01-29T20:29:35.707Z,23.90
2018-01-29T20:30:35.724Z,23.81
2018-01-29T20:31:35.720Z,23.86
2018-01-29T20:32:35.719Z,23.90
2018-01-29T20:33:35.708Z,23.84
2018-01-29T20:34:35.687Z,23.72
2018-01-29T20:35:35.683Z,23.77
2018-01-29T20:36:35.679Z,23.77
2018-01-29T20:37:35.690Z,23.77
2018-01-29T20:38:35.684Z,23.77
2018-01-29T20:39:35.667Z,23.78
2018-01-29T20:40:35.690Z,23.75
2018-01-29T20:41:35.654Z,23.75
2018-01-29T20:42:35.669Z,23.77
2018-01-29T20:43:35.666Z,23.75
2018-01-29T20:44:35.658Z,23.75
2018-01-29T20:45:35.635Z,23.71
2018-01-29T20:46:35.649Z,23.71
2018-01-29T20:47:35.645Z,23.77
2018-01-29T20:48:35.622Z,23.67
2018-01-29T20:49:35.621Z,23.69
2018-01-29T20:50:35.617Z,23.72
2018-01-29T20:51:35.608Z,23.72
2018-01-29T20:52:35.627Z,23.68
2018-01-29T20:53:35.623Z,23.75
2018-01-29T20:54:35.613Z,23.72
2018-01-29T20:55:35.590Z,23.78
2018-01-29T20:56:35.590Z,23.75
2018-01-29T20:57:35.586Z,23.62
2018-01-29T20:58:35.581Z,23.71
2018-01-29T20:59:35.573Z,23.71
2018-01-29T21:00:35.592Z,23.72
2018-01-29T21:01:35.583Z,23.64
2018-01-29T21:02:35.582Z,23.74
2018-01-29T21:03:35.556Z,23.67
2018-01-29T21:04:35.558Z,23.62
2018-01-29T21:05:35.565Z,23.59
2018-01-29T21:06:35.546Z,23.37
2018-01-29T21:07:35.543Z,23.23
2018-01-29T21:08:35.556Z,23.16
2018-01-29T21:09:35.533Z,23.00
2018-01-29T21:10:35.542Z,23.12
2018-01-29T21:11:35.519Z,22.99
2018-01-29T21:12:35.514Z,22.99
2018-01-29T21:13:35.510Z,23.15
2018-01-29T21:14:35.511Z,22.96
2018-01-29T21:15:35.519Z,22.86
2018-01-29T21:16:35.496Z,22.91
2018-01-29T21:17:35.497Z,22.91
2018-01-29T21:18:35.485Z,22.88
2018-01-29T21:19:35.481Z,22.89
2018-01-29T21:20:35.499Z,22.88
2018-01-29T21:21:35.490Z,22.76
2018-01-29T21:22:35.488Z,22.82
2018-01-29T21:23:35.485Z,22.86
2018-01-29T21:24:35.460Z,22.84
2018-01-29T21:25:35.474Z,22.84
2018-01-29T21:26:35.446Z,22.85
2018-01-29T21:27:35.445Z,22.89
2018-01-29T21:28:35.455Z,22.89
2018-01-29T21:29:35.432Z,22.89
2018-01-29T21:30:35.426Z,22.91
2018-01-29T21:31:35.421Z,23.00
2018-01-29T21:32:35.417Z,22.93
2018-01-29T21:33:35.435Z,22.91
2018-01-29T21:34:35.430Z,22.93
2018-01-29T21:35:35.420Z,22.86
2018-01-29T21:36:35.412Z,22.94
2018-01-29T21:37:35.407Z,22.88
2018-01-29T21:38:35.405Z,22.88
2018-01-29T21:39:35.400Z,22.89
2018-01-29T21:40:35.397Z,22.85
2018-01-29T21:41:35.387Z,22.84
2018-01-29T21:42:35.386Z,22.88
2018-01-29T21:43:35.381Z,22.91
2018-01-29T21:44:35.373Z,22.88
2018-01-29T21:45:35.372Z,22.88
2018-01-29T21:46:35.366Z,22.86
2018-01-29T21:47:35.361Z,22.84
2018-01-29T21:48:35.353Z,22.84
2018-01-29T21:49:35.352Z,22.89
2018-01-29T21:50:35.345Z,22.81
2018-01-29T21:51:35.324Z,22.74
2018-01-29T21:52:35.338Z,22.74
2018-01-29T21:53:35.329Z,22.70
2018-01-29T21:54:35.308Z,22.70
2018-01-29T21:55:35.304Z,22.66
2018-01-29T21:56:35.303Z,22.63
2018-01-29T21:57:35.294Z,22.63
2018-01-29T21:58:35.308Z,22.60
2018-01-29T21:59:35.293Z,22.56
2018-01-29T22:00:35.283Z,22.57
2018-01-29T22:01:35.288Z,22.59
2018-01-29T22:02:35.282Z,22.57
2018-01-29T22:03:35.267Z,22.63
2018-01-29T22:04:35.273Z,22.63
2018-01-29T22:05:35.272Z,22.48
2018-01-29T22:06:35.247Z,22.49
2018-01-29T22:07:35.261Z,22.49
2018-01-29T22:08:35.238Z,22.42
2018-01-29T22:09:35.234Z,22.36
2018-01-29T22:10:35.229Z,22.36
2018-01-29T22:11:35.242Z,22.38
2018-01-29T22:12:35.217Z,22.42
2018-01-29T22:13:35.213Z,22.41
2018-01-29T22:14:35.225Z,22.39
2018-01-29T22:15:35.202Z,22.36
2018-01-29T22:16:35.215Z,22.29
2018-01-29T22:17:35.210Z,22.30
2018-01-29T22:18:35.204Z,22.29
2018-01-29T22:19:35.180Z,22.42
2018-01-29T22:20:35.194Z,22.46
2018-01-29T22:21:35.171Z,22.46
2018-01-29T22:22:35.164Z,22.46
2018-01-29T22:23:35.178Z,22.48
2018-01-29T22:24:35.173Z,22.39
2018-01-29T22:25:35.150Z,22.35
2018-01-29T22:26:35.162Z,22.38
2018-01-29T22:27:35.153Z,22.42
2018-01-29T22:28:35.152Z,22.45
2018-01-29T22:29:35.147Z,22.46
2018-01-29T22:30:35.138Z,22.51
2018-01-29T22:31:35.136Z,22.49
2018-01-29T22:32:35.132Z,22.49
2018-01-29T22:33:35.126Z,22.49
2018-01-29T22:34:35.120Z,22.46
2018-01-29T22:35:35.111Z,22.45
2018-01-29T22:36:35.110Z,22.49
2018-01-29T22:37:35.106Z,22.51
2018-01-29T22:38:35.100Z,22.52
2018-01-29T22:39:35.091Z,22.56
2018-01-29T22:40:35.090Z,22.60
2018-01-29T22:41:35.085Z,22.61
2018-01-29T22:42:35.060Z,22.57
2018-01-29T22:43:35.071Z,22.61
2018-01-29T22:44:35.051Z,22.59
2018-01-29T22:45:35.061Z,22.56
2018-01-29T22:46:35.055Z,22.56
2018-01-29T22:47:35.036Z,22.60
2018-01-29T22:48:35.045Z,22.63
2018-01-29T22:49:35.041Z,22.52
2018-01-29T22:50:35.035Z,22.49
2018-01-29T22:51:35.015Z,22.49
2018-01-29T22:52:35.011Z,22.45
2018-01-29T22:53:35.020Z,22.42
2018-01-29T22:54:35.015Z,22.45
2018-01-29T22:55:34.995Z,22.45
2018-01-29T22:56:34.990Z,22.36
2018-01-29T22:57:35.186Z,22.42
2018-01-29T22:58:34.995Z,22.42
2018-01-29T22:59:34.977Z,22.39
2018-01-29T23:00:34.971Z,22.41
2018-01-29T23:01:34.965Z,22.39
2018-01-29T23:02:35.009Z,22.39
2018-01-29T23:03:34.954Z,22.39
2018-01-29T23:04:34.949Z,22.41
2018-01-29T23:05:34.944Z,22.36
2018-01-29T23:06:34.938Z,22.42
2018-01-29T23:07:34.935Z,22.33
2018-01-29T23:08:34.929Z,22.29
2018-01-29T23:09:34.928Z,22.29
2018-01-29T23:10:34.918Z,22.23
2018-01-29T23:11:34.913Z,22.35
2018-01-29T23:12:34.958Z,22.15
2018-01-29T23:13:34.903Z,22.20
2018-01-29T23:14:34.897Z,22.27
2018-01-29T23:15:34.892Z,22.15
2018-01-29T23:16:34.887Z,22.14
2018-01-29T23:17:34.882Z,22.12
2018-01-29T23:18:34.876Z,22.01
2018-01-29T23:19:34.872Z,22.04
2018-01-29T23:20:34.865Z,22.02
2018-01-29T23:21:34.860Z,21.86
2018-01-29T23:22:34.854Z,21.77
2018-01-29T23:23:34.849Z,21.81
2018-01-29T23:24:34.843Z,21.71
2018-01-29T23:25:34.838Z,21.66
2018-01-29T23:26:34.831Z,21.49
2018-01-29T23:27:34.826Z,21.43
2018-01-29T23:28:34.820Z,21.30
2018-01-29T23:29:34.815Z,21.30
2018-01-29T23:30:34.809Z,21.30
2018-01-29T23:31:34.803Z,21.28
2018-01-29T23:32:34.797Z,21.30
2018-01-29T23:33:34.791Z,21.21
2018-01-29T23:34:34.785Z,21.18
2018-01-29T23:35:34.799Z,21.09
2018-01-29T23:36:34.791Z,20.96
2018-01-29T23:37:34.768Z,20.93
2018-01-29T23:38:34.761Z,20.90
2018-01-29T23:39:34.773Z,20.90
2018-01-29T23:40:34.748Z,20.83
2018-01-29T23:41:34.761Z,20.85
2018-01-29T23:42:34.735Z,20.81
2018-01-29T23:43:34.747Z,20.75
2018-01-29T23:44:34.723Z,20.75
2018-01-29T23:45:34.717Z,20.68
2018-01-29T23:46:34.710Z,20.69
2018-01-29T23:47:34.704Z,20.66
2018-01-29T23:48:34.718Z,20.61
2018-01-29T23:49:34.710Z,20.33
2018-01-29T23:50:34.684Z,20.12
2018-01-29T23:51:34.732Z,20.16
